Time;durP1;ratioP1;P1;durP2;ratioP2;P2;SDS_P1;SDS_P2;PMS_P1;PMS_P2;Temp;Humidity;BMP_temperature;BMP_pressure;BME280_temperature;BME280_humidity;BME280_pressure;Samples;Min_cycle;Max_cycle;Signal;HPM_P1;HPM_P2
2021/06/14 06:10:30;;;;;;;1079.03;982.50;;;;;;;;;;4448056;31;96807;-72
2021/06/14 06:13:00;;;;;;;1081.03;983.95;;;;;;;;;;4443651;32;20441;-72
2021/06/14 06:15:26;;;;;;;1082.07;984.62;;;;;;;;;;4444167;32;20196;-72
2021/06/14 06:17:52;;;;;;;1082.20;984.72;;;;;;;;;;4443898;32;20063;-73
2021/06/14 06:20:18;;;;;;;1081.47;983.95;;;;;;;;;;4442680;32;20368;-73
2021/06/14 06:22:47;;;;;;;1083.78;985.83;;;;;;;;;;4445196;32;20089;-73
2021/06/14 06:25:15;;;;;;;1084.50;986.37;;;;;;;;;;4431737;32;20080;-73
2021/06/14 06:27:41;;;;;;;1085.45;987.37;;;;;;;;;;4431910;32;20064;-74
2021/06/14 06:30:10;;;;;;;1087.53;989.17;;;;;;;;;;4434816;32;20084;-72
2021/06/14 06:32:38;;;;;;;1086.70;988.10;;;;;;;;;;4443043;32;20029;-71
2021/06/14 06:35:05;;;;;;;1087.80;988.83;;;;;;;;;;4444571;32;20034;-73
2021/06/14 06:37:31;;;;;;;1085.95;987.22;;;;;;;;;;4433692;32;20435;-72
2021/06/14 06:40:02;;;;;;;1086.85;988.15;;;;;;;;;;4442427;32;20041;-72
2021/06/14 06:42:28;;;;;;;1085.90;987.17;;;;;;;;;;4442163;32;20096;-72
2021/06/14 06:44:59;;;;;;;1087.00;988.05;;;;;;;;;;4433850;32;20068;-73
2021/06/14 06:47:25;;;;;;;1088.43;989.10;;;;;;;;;;4442869;32;20077;-72
2021/06/14 06:49:53;;;;;;;1087.60;988.42;;;;;;;;;;4443667;32;20140;-72
2021/06/14 06:52:19;;;;;;;1087.78;988.42;;;;;;;;;;4442904;32;20096;-70
2021/06/14 06:54:47;;;;;;;1086.93;987.97;;;;;;;;;;4444397;32;20430;-70
2021/06/14 06:57:15;;;;;;;1088.05;988.47;;;;;;;;;;4443332;32;20073;-71
2021/06/14 06:59:43;;;;;;;1087.78;988.30;;;;;;;;;;4442410;32;20037;-71
2021/06/14 07:02:09;;;;;;;1087.57;988.33;;;;;;;;;;4442404;32;20063;-70
2021/06/14 07:04:38;;;;;;;1087.13;987.65;;;;;;;;;;4432925;32;20046;-71
2021/06/14 07:07:07;;;;;;;1087.03;987.63;;;;;;;;;;4443622;32;20060;-72
2021/06/14 07:09:33;;;;;;;1087.00;987.10;;;;;;;;;;4437734;32;20423;-71
2021/06/14 07:11:59;;;;;;;1087.00;987.58;;;;;;;;;;4444152;32;20143;-71
2021/06/14 07:14:26;;;;;;;1088.63;988.78;;;;;;;;;;4443486;32;20021;-71
2021/06/14 07:16:54;;;;;;;1087.25;987.63;;;;;;;;;;4443599;32;20133;-71
2021/06/14 07:19:22;;;;;;;1086.75;987.33;;;;;;;;;;4442700;32;20034;-71
2021/06/14 07:21:49;;;;;;;1087.50;987.88;;;;;;;;;;4423480;32;20135;-71
2021/06/14 07:24:17;;;;;;;1087.78;988.25;;;;;;;;;;4428168;32;20081;-71
2021/06/14 07:26:43;;;;;;;1089.00;989.25;;;;;;;;;;4431970;32;20062;-71
2021/06/14 07:29:09;;;;;;;1088.28;988.63;;;;;;;;;;4426244;32;20064;-71
2021/06/14 07:31:36;;;;;;;1088.07;988.38;;;;;;;;;;4432235;32;20104;-71
2021/06/14 07:34:02;;;;;;;1087.22;987.47;;;;;;;;;;4422773;32;20340;-71
2021/06/14 07:36:29;;;;;;;1088.18;988.15;;;;;;;;;;4420595;32;20085;-70
2021/06/14 07:38:55;;;;;;;1088.53;988.38;;;;;;;;;;4433910;32;20060;-71
2021/06/14 07:41:21;;;;;;;1088.75;989.03;;;;;;;;;;4433671;32;20041;-71
2021/06/14 07:43:48;;;;;;;1087.93;988.33;;;;;;;;;;4425583;32;20030;-71
2021/06/14 07:46:16;;;;;;;1089.68;989.83;;;;;;;;;;4423352;32;20060;-70
2021/06/14 07:48:44;;;;;;;1088.32;988.38;;;;;;;;;;4436774;32;20069;-69
2021/06/14 07:51:15;;;;;;;1090.07;990.22;;;;;;;;;;4428319;32;20392;-70
2021/06/14 07:53:49;;;;;;;1089.95;989.70;;;;;;;;;;4429885;32;20061;-71
2021/06/14 07:56:15;;;;;;;1088.97;989.00;;;;;;;;;;4425424;32;20060;-70
2021/06/14 07:58:43;;;;;;;1089.40;989.45;;;;;;;;;;4421625;32;20031;-71
2021/06/14 08:01:09;;;;;;;1088.75;988.83;;;;;;;;;;4434943;32;20029;-70
2021/06/14 08:03:35;;;;;;;1088.22;988.40;;;;;;;;;;4436928;32;20786;-70
2021/06/14 08:06:04;;;;;;;1088.60;988.55;;;;;;;;;;4432857;32;20093;-72
2021/06/14 08:08:33;;;;;;;1087.82;988.03;;;;;;;;;;4431680;32;20076;-74
2021/06/14 08:11:02;;;;;;;1090.07;989.97;;;;;;;;;;4431774;32;20080;-74
2021/06/14 08:13:28;;;;;;;1088.80;988.90;;;;;;;;;;4418564;32;20026;-74
2021/06/14 08:15:59;;;;;;;1088.95;988.85;;;;;;;;;;4432463;32;20092;-74
2021/06/14 08:26:22;;;;;;;1088.95;988.83;;;;;;;;;;4428423;32;20075;-75
2021/06/14 08:28:51;;;;;;;1091.18;990.17;;;;;;;;;;4422917;32;20296;-75
2021/06/14 08:31:19;;;;;;;1088.90;988.80;;;;;;;;;;4433428;32;20180;-75
2021/06/14 08:33:48;;;;;;;1090.72;990.60;;;;;;;;;;4423900;32;20392;-76
2021/06/14 08:36:14;;;;;;;1091.00;990.08;;;;;;;;;;4423103;32;20029;-76
2021/06/14 08:38:43;;;;;;;1089.60;989.35;;;;;;;;;;4433421;32;20383;-74
2021/06/14 08:41:09;;;;;;;1089.40;989.28;;;;;;;;;;4435401;32;20033;-74
2021/06/14 08:43:35;;;;;;;1089.15;988.92;;;;;;;;;;4435756;32;20037;-74
2021/06/14 08:46:01;;;;;;;1089.15;988.97;;;;;;;;;;4431702;32;20083;-76
2021/06/14 08:48:30;;;;;;;1091.72;991.20;;;;;;;;;;4430325;32;20033;-75
2021/06/14 08:50:56;;;;;;;1090.93;990.50;;;;;;;;;;4424498;32;20432;-74
2021/06/14 08:53:25;;;;;;;1089.18;988.92;;;;;;;;;;4428187;32;20061;-75
2021/06/14 08:55:51;;;;;;;1089.90;989.47;;;;;;;;;;4435621;32;20086;-75
2021/06/14 08:58:17;;;;;;;1089.32;988.87;;;;;;;;;;4430662;32;20099;-75
2021/06/14 09:00:43;;;;;;;1090.07;989.65;;;;;;;;;;4426882;32;20063;-75
2021/06/14 09:03:09;;;;;;;1092.80;992.08;;;;;;;;;;4433053;32;20053;-74
2021/06/14 09:05:38;;;;;;;1090.13;989.65;;;;;;;;;;4428044;32;20051;-75
2021/06/14 09:08:11;;;;;;;1091.43;990.87;;;;;;;;;;4428327;32;20362;-75
2021/06/14 09:10:39;;;;;;;1091.15;990.55;;;;;;;;;;4429726;32;20049;-75
2021/06/14 09:13:16;;;;;;;1090.97;990.50;;;;;;;;;;4427346;32;20042;-75
2021/06/14 09:15:45;;;;;;;1090.20;989.65;;;;;;;;;;4423913;32;20128;-75
2021/06/14 09:18:17;;;;;;;1090.50;990.00;;;;;;;;;;4423967;32;20154;-74
2021/06/14 09:21:04;;;;;;;1091.20;990.58;;;;;;;;;;4430896;32;20049;-74
2021/06/14 09:23:42;;;;;;;1089.07;988.50;;;;;;;;;;4429488;32;20129;-75
2021/06/14 09:26:20;;;;;;;1091.03;990.22;;;;;;;;;;4429770;32;20367;-75
2021/06/14 09:28:55;;;;;;;1092.38;991.53;;;;;;;;;;4434632;32;20034;-75
2021/06/14 09:31:26;;;;;;;1092.50;991.65;;;;;;;;;;4434448;32;20033;-74
2021/06/14 09:33:52;;;;;;;1088.20;987.50;;;;;;;;;;4434013;32;20108;-75
2021/06/14 09:36:20;;;;;;;1090.35;989.63;;;;;;;;;;4433816;32;20126;-75
2021/06/14 09:38:47;;;;;;;1089.43;988.87;;;;;;;;;;4433783;32;20403;-74
2021/06/14 09:41:19;;;;;;;1090.43;989.72;;;;;;;;;;4432955;32;20129;-73
2021/06/14 09:43:48;;;;;;;1090.80;990.20;;;;;;;;;;4435458;32;20033;-73
2021/06/14 09:46:21;;;;;;;1090.20;989.60;;;;;;;;;;4434842;32;20037;-74
2021/06/14 09:48:47;;;;;;;1090.97;990.25;;;;;;;;;;4433614;32;20117;-73
2021/06/14 09:51:14;;;;;;;1089.95;989.30;;;;;;;;;;4433629;32;20096;-74
2021/06/14 09:53:47;;;;;;;1090.32;989.67;;;;;;;;;;4433222;32;20050;-74
2021/06/14 09:56:22;;;;;;;1090.97;990.35;;;;;;;;;;4434466;32;20067;-73
2021/06/14 09:58:52;;;;;;;1091.93;990.97;;;;;;;;;;4420758;32;20061;-75
2021/06/14 10:01:44;;;;;;;1091.30;990.45;;;;;;;;;;4426110;32;20022;-74
2021/06/14 10:04:10;;;;;;;1089.35;988.67;;;;;;;;;;4430479;32;20059;-75
2021/06/14 10:06:44;;;;;;;1090.82;990.17;;;;;;;;;;4433503;32;20136;-74
2021/06/14 10:09:14;;;;;;;1089.57;989.05;;;;;;;;;;4433039;32;20026;-74
2021/06/14 10:11:44;;;;;;;1088.80;988.22;;;;;;;;;;4434668;32;20021;-74
2021/06/14 10:14:17;;;;;;;1089.75;988.90;;;;;;;;;;4436705;32;20088;-74
2021/06/14 10:16:44;;;;;;;1091.07;990.30;;;;;;;;;;4423816;32;20056;-74
2021/06/14 10:19:11;;;;;;;1092.05;991.25;;;;;;;;;;4432022;32;20068;-75
2021/06/14 10:21:42;;;;;;;1091.18;990.40;;;;;;;;;;4435414;32;20048;-73
2021/06/14 10:24:13;;;;;;;1091.90;990.95;;;;;;;;;;4434019;32;20029;-75
2021/06/14 10:26:41;;;;;;;1090.13;989.35;;;;;;;;;;4435105;32;20064;-73
2021/06/14 10:29:08;;;;;;;1088.88;988.20;;;;;;;;;;4432736;32;20046;-75
2021/06/14 10:31:38;;;;;;;1090.18;989.45;;;;;;;;;;4433518;32;20314;-74
2021/06/14 10:34:06;;;;;;;1090.82;989.90;;;;;;;;;;4435989;32;20579;-74
2021/06/14 10:36:33;;;;;;;1090.15;989.33;;;;;;;;;;4430318;32;20095;-75
2021/06/14 10:39:01;;;;;;;1091.60;990.47;;;;;;;;;;4431497;32;20065;-75
2021/06/14 10:41:30;;;;;;;1089.95;989.03;;;;;;;;;;4433293;32;20065;-75
2021/06/14 10:43:58;;;;;;;1090.82;989.97;;;;;;;;;;4433812;32;20042;-74
2021/06/14 10:46:27;;;;;;;1090.70;989.80;;;;;;;;;;4432493;32;20311;-74
2021/06/14 10:49:00;;;;;;;1085.35;984.65;;;;;;;;;;4432147;32;20201;-74
2021/06/14 10:51:26;;;;;;;1091.05;990.10;;;;;;;;;;4419131;32;20025;-74
2021/06/14 10:53:52;;;;;;;1092.20;991.13;;;;;;;;;;4419490;32;20081;-74
2021/06/14 10:56:23;;;;;;;1090.75;989.67;;;;;;;;;;4434122;32;20149;-74
2021/06/14 10:59:02;;;;;;;1089.10;988.12;;;;;;;;;;4422767;32;20041;-74
2021/06/14 11:01:33;;;;;;;1089.78;988.90;;;;;;;;;;4426219;32;20360;-75
2021/06/14 11:04:02;;;;;;;1090.78;989.75;;;;;;;;;;4435884;32;20037;-74
2021/06/14 11:06:32;;;;;;;1090.55;989.45;;;;;;;;;;4435446;32;20049;-73
2021/06/14 11:09:04;;;;;;;1091.75;990.75;;;;;;;;;;4429385;32;20064;-73
2021/06/14 11:11:31;;;;;;;1090.50;989.55;;;;;;;;;;4434452;32;20169;-74
2021/06/14 11:14:01;;;;;;;1090.80;989.83;;;;;;;;;;4434284;32;20041;-74
2021/06/14 11:16:35;;;;;;;1092.97;991.75;;;;;;;;;;4435410;32;20041;-74
2021/06/14 11:19:04;;;;;;;1091.45;990.25;;;;;;;;;;4429380;32;20025;-74
2021/06/14 11:21:30;;;;;;;1091.50;990.35;;;;;;;;;;4435122;32;20090;-73
2021/06/14 11:24:05;;;;;;;1092.85;991.55;;;;;;;;;;4429965;32;20055;-74
2021/06/14 11:26:31;;;;;;;1092.40;990.97;;;;;;;;;;4436372;32;20360;-74
2021/06/14 11:29:00;;;;;;;1091.78;990.60;;;;;;;;;;4436605;32;20038;-74
2021/06/14 11:31:30;;;;;;;1092.75;991.38;;;;;;;;;;4435479;32;20089;-74
2021/06/14 11:34:04;;;;;;;1091.38;990.45;;;;;;;;;;4435170;32;20034;-73
2021/06/14 11:36:33;;;;;;;1092.05;990.78;;;;;;;;;;4433628;32;20048;-73
2021/06/14 11:38:59;;;;;;;;;;;;;;;;;;4436390;32;20083;-72
2021/06/14 11:41:30;;;;;;;1093.05;991.42;;;;;;;;;;4434557;32;19937;-73
2021/06/14 11:44:15;;;;;;;1088.78;987.72;;;;;;;;;;4436024;32;20033;-73
2021/06/14 11:46:41;;;;;;;1093.13;991.62;;;;;;;;;;4435620;32;20055;-73
2021/06/14 11:49:13;;;;;;;1092.38;991.03;;;;;;;;;;4435548;32;20034;-74
2021/06/14 11:51:39;;;;;;;1093.45;991.72;;;;;;;;;;4431850;32;20030;-73
2021/06/14 11:54:07;;;;;;;1092.30;990.65;;;;;;;;;;4434651;32;20390;-73
2021/06/14 11:56:37;;;;;;;1091.35;990.03;;;;;;;;;;4435809;32;20383;-72
2021/06/14 11:59:04;;;;;;;1092.18;990.53;;;;;;;;;;4420723;32;20026;-73
2021/06/14 12:01:32;;;;;;;1091.68;990.25;;;;;;;;;;4430332;32;20060;-73
2021/06/14 12:04:02;;;;;;;1091.28;989.87;;;;;;;;;;4428759;32;20332;-73
2021/06/14 12:06:29;;;;;;;1091.00;989.58;;;;;;;;;;4433222;32;20095;-73
2021/06/14 12:09:06;;;;;;;1091.65;990.12;;;;;;;;;;4435534;32;20101;-73
2021/06/14 12:11:32;;;;;;;1091.28;989.78;;;;;;;;;;4437468;32;20188;-73
2021/06/14 12:14:09;;;;;;;1091.18;989.78;;;;;;;;;;4433419;32;20029;-74
2021/06/14 12:16:37;;;;;;;1094.30;992.60;;;;;;;;;;4432837;32;20414;-72
2021/06/14 12:19:06;;;;;;;1091.75;990.22;;;;;;;;;;4436942;32;20041;-74
2021/06/14 12:21:32;;;;;;;1093.38;991.65;;;;;;;;;;4433341;32;20427;-74
2021/06/14 12:24:00;;;;;;;1091.47;989.95;;;;;;;;;;4429647;32;20069;-73
2021/06/14 12:26:38;;;;;;;1090.38;988.97;;;;;;;;;;4433867;32;20046;-71
2021/06/14 12:29:16;;;;;;;1092.25;990.67;;;;;;;;;;4434681;32;20120;-73
2021/06/14 12:31:45;;;;;;;1091.77;989.97;;;;;;;;;;4434095;32;20065;-74
2021/06/14 12:34:11;;;;;;;1091.10;989.53;;;;;;;;;;4435563;32;20332;-74
2021/06/14 12:36:39;;;;;;;1091.07;989.72;;;;;;;;;;4422374;32;20038;-74
2021/06/14 12:39:05;;;;;;;1092.70;991.08;;;;;;;;;;4424442;32;20041;-75
2021/06/14 12:41:33;;;;;;;1094.18;992.00;;;;;;;;;;4423929;32;20320;-75
2021/06/14 12:44:00;;;;;;;1094.10;991.97;;;;;;;;;;4433248;32;20235;-75
2021/06/14 12:46:33;;;;;;;1091.55;990.15;;;;;;;;;;4432009;32;20415;-75
2021/06/14 12:48:59;;;;;;;1091.18;989.47;;;;;;;;;;4427702;32;20580;-75
2021/06/14 12:51:32;;;;;;;1093.03;991.25;;;;;;;;;;4433461;32;20320;-75
2021/06/14 12:54:00;;;;;;;1092.97;991.22;;;;;;;;;;4432808;32;20098;-75
2021/06/14 12:56:29;;;;;;;1093.80;991.78;;;;;;;;;;4433191;32;20049;-74
2021/06/14 12:58:57;;;;;;;1093.38;991.70;;;;;;;;;;4433050;32;20037;-74
2021/06/14 13:01:28;;;;;;;1093.10;991.30;;;;;;;;;;4432220;32;20034;-75
2021/06/14 13:03:57;;;;;;;1092.68;991.05;;;;;;;;;;4435804;32;20061;-74
2021/06/14 13:06:34;;;;;;;1094.50;992.45;;;;;;;;;;4421905;32;20534;-75
2021/06/14 13:09:01;;;;;;;1093.22;991.42;;;;;;;;;;4434898;32;20049;-75
2021/06/14 13:11:27;;;;;;;1092.72;990.97;;;;;;;;;;4450196;32;20473;-83
2021/06/14 13:13:55;;;;;;;1093.60;991.87;;;;;;;;;;4452212;32;20328;-83
2021/06/14 13:16:22;;;;;;;1092.10;990.33;;;;;;;;;;4448655;32;20056;-81
2021/06/14 13:18:58;;;;;;;1093.10;990.85;;;;;;;;;;4433717;32;20064;-80
2021/06/14 13:21:28;;;;;;;1093.38;991.45;;;;;;;;;;4433773;32;20041;-80
2021/06/14 13:23:56;;;;;;;1091.13;989.47;;;;;;;;;;4435607;32;20034;-80
2021/06/14 13:26:26;;;;;;;1092.80;991.00;;;;;;;;;;4435694;32;20087;-80
2021/06/14 13:28:52;;;;;;;1088.20;986.83;;;;;;;;;;4435239;32;20065;-79
2021/06/14 13:31:21;;;;;;;1090.47;988.92;;;;;;;;;;4436042;32;20416;-80
2021/06/14 13:33:58;;;;;;;1094.55;992.58;;;;;;;;;;4436395;32;20057;-80
2021/06/14 13:36:32;;;;;;;1093.97;992.22;;;;;;;;;;4434654;32;20055;-80
2021/06/14 13:38:58;;;;;;;1093.22;991.47;;;;;;;;;;4432284;32;20494;-81
2021/06/14 13:41:29;;;;;;;1092.50;990.70;;;;;;;;;;4435558;32;20033;-74
2021/06/14 13:44:08;;;;;;;1091.93;990.08;;;;;;;;;;4419889;32;20109;-81
2021/06/14 13:46:38;;;;;;;1092.43;990.65;;;;;;;;;;4426690;32;20061;-80
2021/06/14 13:49:04;;;;;;;;;;;;;;;;;;4433370;32;20400;-80
2021/06/14 13:51:30;;;;;;;1091.45;989.85;;;;;;;;;;4435867;32;19945;-80
2021/06/14 13:54:01;;;;;;;1093.13;991.17;;;;;;;;;;4426119;32;20052;-80
2021/06/14 13:56:44;;;;;;;1091.72;990.03;;;;;;;;;;4426519;32;20065;-80
2021/06/14 13:59:24;;;;;;;1093.18;991.38;;;;;;;;;;4436108;32;20038;-80
2021/06/14 14:01:51;;;;;;;1091.97;990.12;;;;;;;;;;4435842;32;20034;-80
2021/06/14 14:04:19;;;;;;;1092.63;990.80;;;;;;;;;;4436150;32;20145;-79
2021/06/14 14:06:45;;;;;;;1092.93;991.08;;;;;;;;;;4433832;32;20021;-79
2021/06/14 14:09:14;;;;;;;1094.40;992.40;;;;;;;;;;4435395;32;20075;-79
2021/06/14 14:11:42;;;;;;;1093.40;991.55;;;;;;;;;;4436515;32;20053;-79
2021/06/14 14:14:10;;;;;;;1093.80;991.83;;;;;;;;;;4435656;32;20085;-79
2021/06/14 14:16:39;;;;;;;1094.43;992.45;;;;;;;;;;4435351;32;20067;-80
2021/06/14 14:19:06;;;;;;;1090.70;988.97;;;;;;;;;;4436031;32;20072;-80
2021/06/14 14:21:32;;;;;;;1094.38;992.45;;;;;;;;;;4436048;32;20087;-80
2021/06/14 14:24:03;;;;;;;1090.85;989.15;;;;;;;;;;4434229;32;20025;-80
2021/06/14 14:26:29;;;;;;;1094.30;992.22;;;;;;;;;;4432794;32;20026;-80
2021/06/14 14:28:55;;;;;;;1090.95;989.28;;;;;;;;;;4434536;32;20033;-81
2021/06/14 14:31:21;;;;;;;1093.90;991.97;;;;;;;;;;4424707;32;20041;-81
2021/06/14 14:33:50;;;;;;;1093.57;991.62;;;;;;;;;;4428442;32;20438;-80
2021/06/14 14:36:16;;;;;;;1093.80;991.78;;;;;;;;;;4437123;32;20037;-81
2021/06/14 14:38:45;;;;;;;1095.45;993.13;;;;;;;;;;4437171;32;20443;-81
2021/06/14 14:41:15;;;;;;;1094.25;992.13;;;;;;;;;;4436405;32;20083;-80
2021/06/14 14:43:50;;;;;;;1094.10;991.97;;;;;;;;;;4436028;32;20082;-81
2021/06/14 14:46:17;;;;;;;1095.13;992.83;;;;;;;;;;4434283;32;20056;-81
2021/06/14 14:48:44;;;;;;;1095.38;992.97;;;;;;;;;;4438031;32;20026;-81
2021/06/14 14:51:10;;;;;;;1094.53;992.47;;;;;;;;;;4437247;32;20038;-80
2021/06/14 14:53:36;;;;;;;1092.82;990.60;;;;;;;;;;4438644;32;20033;-80
2021/06/14 14:56:03;;;;;;;1093.18;991.15;;;;;;;;;;4437583;32;20101;-81
2021/06/14 14:58:29;;;;;;;1094.30;992.13;;;;;;;;;;4436913;32;20057;-81
2021/06/14 15:00:55;;;;;;;1094.47;992.17;;;;;;;;;;4421744;32;20523;-80
2021/06/14 15:03:21;;;;;;;1094.55;992.30;;;;;;;;;;4423793;32;20316;-80
2021/06/14 15:05:47;;;;;;;1094.95;992.55;;;;;;;;;;4423704;32;20414;-81
2021/06/14 15:08:13;;;;;;;1095.15;992.90;;;;;;;;;;4431209;32;20030;-80
2021/06/14 15:10:40;;;;;;;1095.43;993.10;;;;;;;;;;4435325;32;20029;-80
2021/06/14 15:13:06;;;;;;;1095.80;993.40;;;;;;;;;;4438001;32;20056;-80
2021/06/14 15:15:35;;;;;;;1095.95;993.35;;;;;;;;;;4438765;32;20179;-80
2021/06/14 15:18:01;;;;;;;1094.35;992.25;;;;;;;;;;4433010;32;20038;-80
2021/06/14 15:20:28;;;;;;;1094.65;992.40;;;;;;;;;;4422328;32;20026;-80
2021/06/14 15:22:55;;;;;;;1095.50;993.20;;;;;;;;;;4421949;32;20087;-80
2021/06/14 15:25:22;;;;;;;1094.35;991.97;;;;;;;;;;4420440;32;20063;-80
2021/06/14 15:27:48;;;;;;;1093.75;991.62;;;;;;;;;;4432359;32;20376;-86
2021/06/14 15:30:16;;;;;;;1096.72;994.17;;;;;;;;;;4435550;32;20384;-80
2021/06/14 15:32:47;;;;;;;1094.72;992.53;;;;;;;;;;4438044;32;20328;-79
2021/06/14 15:35:14;;;;;;;1094.78;992.47;;;;;;;;;;4437232;32;20086;-77
2021/06/14 15:37:40;;;;;;;1093.85;991.75;;;;;;;;;;4438207;32;20034;-83
2021/06/14 15:40:07;;;;;;;1093.70;991.42;;;;;;;;;;4435653;32;20056;-78
2021/06/14 15:42:33;;;;;;;1096.18;993.65;;;;;;;;;;4430245;32;20081;-78
2021/06/14 15:44:59;;;;;;;1094.53;992.22;;;;;;;;;;4438837;32;20026;-79
2021/06/14 15:47:27;;;;;;;1094.03;991.75;;;;;;;;;;4438105;32;20106;-79
2021/06/14 15:49:53;;;;;;;1094.78;992.50;;;;;;;;;;4431745;32;20073;-78
2021/06/14 15:52:21;;;;;;;1092.47;990.30;;;;;;;;;;4429945;32;20061;-78
2021/06/14 15:54:47;;;;;;;1094.65;992.28;;;;;;;;;;4433851;32;20060;-78
2021/06/14 15:57:13;;;;;;;1095.13;992.83;;;;;;;;;;4430195;32;20132;-78
2021/06/14 15:59:39;;;;;;;1091.57;989.58;;;;;;;;;;4436066;32;20104;-79
2021/06/14 16:02:05;;;;;;;1091.93;989.70;;;;;;;;;;4436226;32;20079;-80
2021/06/14 16:04:34;;;;;;;1095.72;993.17;;;;;;;;;;4434816;32;20324;-79
2021/06/14 16:07:02;;;;;;;1093.72;991.53;;;;;;;;;;4436835;32;20030;-79
2021/06/14 16:09:30;;;;;;;1094.78;992.35;;;;;;;;;;4434575;32;20050;-81
2021/06/14 16:11:56;;;;;;;1092.47;990.28;;;;;;;;;;4437030;32;20517;-79
2021/06/14 16:14:23;;;;;;;1093.40;991.38;;;;;;;;;;4434885;32;20117;-79
2021/06/14 16:16:49;;;;;;;1092.20;990.00;;;;;;;;;;4436715;32;20030;-77
2021/06/14 16:19:18;;;;;;;1092.75;990.58;;;;;;;;;;4436657;32;20060;-78
2021/06/14 16:21:44;;;;;;;1094.95;992.67;;;;;;;;;;4430715;32;20038;-78
2021/06/14 16:24:10;;;;;;;1095.15;992.85;;;;;;;;;;4437489;32;20379;-79
2021/06/14 16:26:36;;;;;;;1094.72;992.40;;;;;;;;;;4436936;32;20420;-79
2021/06/14 16:29:02;;;;;;;1094.28;991.95;;;;;;;;;;4437512;32;20069;-78
2021/06/14 16:31:31;;;;;;;1093.45;991.15;;;;;;;;;;4429262;32;20324;-79
2021/06/14 16:33:58;;;;;;;1088.73;986.87;;;;;;;;;;4435095;32;20384;-79
2021/06/14 16:36:24;;;;;;;1095.47;993.13;;;;;;;;;;4436040;32;20068;-78
2021/06/14 16:38:52;;;;;;;1093.60;991.40;;;;;;;;;;4436284;32;20051;-81
2021/06/14 16:41:18;;;;;;;1094.15;991.90;;;;;;;;;;4437765;32;20045;-78
2021/06/14 16:43:47;;;;;;;1094.13;991.65;;;;;;;;;;4433419;32;20067;-81
2021/06/14 16:46:13;;;;;;;1094.43;992.00;;;;;;;;;;4431701;32;20080;-78
2021/06/14 16:48:39;;;;;;;1093.43;991.13;;;;;;;;;;4431088;32;20056;-79
2021/06/14 16:51:07;;;;;;;1093.80;991.42;;;;;;;;;;4433480;32;20072;-83
2021/06/14 16:53:33;;;;;;;1094.40;991.92;;;;;;;;;;4425180;32;20123;-82
2021/06/14 16:55:59;;;;;;;1093.93;991.47;;;;;;;;;;4433682;32;20025;-83
2021/06/14 16:58:25;;;;;;;1095.80;993.17;;;;;;;;;;4428678;32;20060;-77
2021/06/14 17:00:54;;;;;;;1094.05;991.53;;;;;;;;;;4432991;32;20041;-76
